Date,TemperatureHighF,TemperatureAvgF,TemperatureLowF,DewpointHighF,DewpointAvgF,DewpointLowF,HumidityHigh,HumidityAvg,HumidityLow,PressureMaxIn,PressureMinIn,WindSpeedMaxMPH,WindSpeedAvgMPH,GustSpeedMaxMPH,PrecipitationSumIn
2013-2-1,30.0,25.6,18.0,17.0,6.6,1.0,72,45,33,0.00,40.00,15,9,0,0.00
2013-2-2,27.0,21.1,13.0,9.0,3.9,1.0,61,48,36,0.00,40.00,8,4,0,0.00
2013-2-3,26.0,23.7,19.0,19.0,14.6,11.0,92,69,53,0.00,40.00,10,5,0,0.00
2013-2-4,28.0,24.0,19.0,15.0,4.7,-5.0,76,46,26,0.00,40.00,11,7,0,0.00
2013-2-5,26.0,18.5,10.0,9.0,1.8,-2.0,64,49,34,0.00,40.00,6,4,0,0.00
2013-2-6,36.0,26.4,19.0,24.0,8.8,-99.9,92,62,22,0.00,40.00,9,6,0,0.00
2013-2-7,24.0,18.3,11.0,6.0,-1.5,-11.0,56,42,25,0.00,40.00,6,4,0,0.00
2013-2-8,18.0,13.7,10.0,15.0,11.6,2.0,98,92,48,0.00,40.00,17,11,0,0.00
2013-2-9,20.0,15.9,11.0,16.0,10.5,3.0,97,81,52,0.00,40.00,23,16,0,0.00
2013-2-10,38.0,22.9,9.0,10.0,-19.9,-99.9,67,40,18,0.00,40.00,8,3,0,0.00
2013-2-11,38.0,25.4,12.0,38.0,20.0,3.0,100,81,52,0.00,40.00,11,4,0,0.49
2013-2-12,44.0,37.6,32.0,34.0,28.8,25.0,100,72,46,0.00,40.00,10,6,0,0.00
2013-2-13,41.0,34.1,26.0,25.0,21.3,19.0,80,60,41,0.00,40.00,7,4,0,0.00
2013-2-14,41.0,33.7,27.0,27.0,21.2,17.0,86,61,39,0.00,40.00,8,4,0,0.00
2013-2-15,42.0,33.1,23.0,36.0,29.3,21.0,98,87,67,0.00,40.00,12,5,0,0.00
2013-2-16,38.0,33.9,29.0,32.0,25.4,-99.9,95,75,43,0.00,40.00,10,6,0,0.00
2013-2-17,29.0,21.4,16.0,20.0,10.1,2.0,97,64,37,0.00,40.00,16,12,0,0.00
2013-2-18,29.0,20.2,12.0,3.0,-2.1,-9.0,57,40,21,0.00,40.00,15,11,0,0.00
2013-2-19,40.0,31.9,22.0,40.0,14.2,-9.0,100,54,23,0.00,40.00,11,5,0,0.54
2013-2-20,40.0,33.2,27.0,40.0,23.5,13.0,100,69,48,0.00,40.00,11,7,0,0.00
2013-2-21,30.0,26.4,22.0,18.0,12.4,7.0,66,56,42,0.00,40.00,13,9,0,0.00
2013-2-22,38.0,31.1,24.0,23.0,19.5,16.0,78,63,43,0.00,40.00,10,5,0,0.00
2013-2-23,37.0,32.9,28.0,35.0,29.2,24.0,95,86,73,0.00,40.00,9,4,0,0.10
2013-2-24,36.0,31.8,28.0,35.0,31.7,28.0,100,100,96,0.00,40.00,10,8,0,0.20
2013-2-25,40.0,31.4,25.0,31.0,28.5,25.0,100,90,63,0.00,40.00,7,3,0,0.32
2013-2-26,39.0,34.4,31.0,33.0,29.9,28.0,100,84,63,0.00,40.00,8,4,0,0.01
2013-2-27,40.0,36.1,32.0,36.0,33.4,29.0,100,91,72,0.00,40.00,17,13,0,0.83
2013-2-28,42.0,36.1,32.0,36.0,33.8,32.0,100,92,76,0.00,40.00,13,6,0,0.00